Terminal Aerodrome Forecast
Issued by NWS

Home | Current Version | Previous Version | Graphics & Text | Print | Product List | Glossary On
Versions: 1 2 3 4 5 6 7 8 9 10 11 12 13
000
FTUS45 KGGW 241720
TAFOLF
TAF
KOLF 241720Z 2418/2518 17012G20KT P6SM BKN090
     FM242000 26020G28KT P6SM BKN090
     FM242200 26025G35KT P6SM VCSH BKN100
     FM250000 27021G31KT P6SM BKN140
     FM250300 26011KT P6SM SCT140
     FM251200 26018G29KT P6SM BKN030=

USA.gov is the U.S. government's official web portal to all federal, state and local government web resources and services.